Time;durP1;ratioP1;P1;durP2;ratioP2;P2;SDS_P1;SDS_P2;PMS_P1;PMS_P2;Temp;Humidity;BMP_temperature;BMP_pressure;BME280_temperature;BME280_humidity;BME280_pressure;Samples;Min_cycle;Max_cycle;Signal;HPM_P1;HPM_P2
2022/07/18 00:00:43;;;;;;;3.15;0.77;;;10.90;99.90;;;;;;5053870;28;20013;-74
2022/07/18 00:03:10;;;;;;;0.75;0.40;;;11.00;99.90;;;;;;5056270;28;20363;-75
2022/07/18 00:05:38;;;;;;;0.30;0.30;;;11.00;99.90;;;;;;5056114;28;20404;-75
2022/07/18 00:08:05;;;;;;;0.30;0.30;;;11.00;99.90;;;;;;5056344;28;20017;-74
2022/07/18 00:10:32;;;;;;;0.50;0.50;;;11.00;99.90;;;;;;5055005;28;20504;-75
2022/07/18 00:13:00;;;;;;;0.60;0.40;;;11.10;99.90;;;;;;5056086;28;20083;-75
2022/07/18 00:15:27;;;;;;;1.55;0.50;;;11.10;99.90;;;;;;5056120;28;20378;-75
2022/07/18 00:17:54;;;;;;;2.28;0.60;;;11.20;99.90;;;;;;5056150;28;20017;-75
2022/07/18 00:20:22;;;;;;;0.60;0.28;;;11.20;99.90;;;;;;5053277;28;20032;-75
2022/07/18 00:22:49;;;;;;;0.90;0.47;;;11.20;99.90;;;;;;5054740;28;20032;-74
2022/07/18 00:25:16;;;;;;;0.90;0.32;;;11.30;99.90;;;;;;5055292;28;20370;-75
2022/07/18 00:27:44;;;;;;;0.82;0.70;;;11.30;99.90;;;;;;5054094;28;20501;-75
2022/07/18 00:30:12;;;;;;;0.45;0.30;;;11.30;99.90;;;;;;5052420;28;20024;-75
2022/07/18 00:32:39;;;;;;;0.30;0.30;;;11.30;99.90;;;;;;5053642;28;20017;-74
2022/07/18 00:35:07;;;;;;;0.70;0.45;;;11.30;99.90;;;;;;5053654;28;20017;-75
2022/07/18 00:37:34;;;;;;;1.38;0.40;;;11.30;99.90;;;;;;5053863;28;20032;-74
2022/07/18 00:40:02;;;;;;;0.35;0.35;;;11.40;99.90;;;;;;5050965;28;20074;-75
2022/07/18 00:42:30;;;;;;;2.78;0.30;;;11.40;99.90;;;;;;5055662;28;20020;-75
2022/07/18 00:44:57;;;;;;;3.40;0.43;;;11.50;99.90;;;;;;5055468;28;20033;-75
2022/07/18 00:47:25;;;;;;;0.70;0.43;;;11.60;99.90;;;;;;5055634;28;20017;-74
2022/07/18 00:49:52;;;;;;;0.47;0.30;;;11.70;99.90;;;;;;5055480;28;20017;-75
2022/07/18 00:52:19;;;;;;;0.68;0.57;;;11.80;99.90;;;;;;5055351;28;20110;-77
2022/07/18 00:54:47;;;;;;;0.85;0.40;;;11.90;99.90;;;;;;5055439;28;20075;-75
2022/07/18 00:57:14;;;;;;;1.17;0.40;;;11.90;99.90;;;;;;5055325;28;20377;-74
2022/07/18 01:02:27;;;;;;;0.80;0.40;;;12.10;99.90;;;;;;5053130;28;20040;-75
2022/07/18 01:04:55;;;;;;;0.98;0.38;;;12.00;99.90;;;;;;5054406;28;20041;-76
2022/07/18 01:07:22;;;;;;;0.50;0.35;;;11.90;99.90;;;;;;5052659;28;20025;-74
2022/07/18 01:09:49;;;;;;;0.98;0.40;;;11.80;99.90;;;;;;5054491;28;20029;-77
2022/07/18 01:12:17;;;;;;;0.50;0.30;;;11.70;99.90;;;;;;5054845;28;20378;-74
2022/07/18 01:14:46;;;;;;;2.58;0.43;;;11.70;99.90;;;;;;5054471;28;20017;-73
2022/07/18 01:17:20;;;;;;;1.98;0.50;;;11.80;99.90;;;;;;5054544;28;20052;-73
2022/07/18 01:19:48;;;;;;;4.82;0.68;;;11.90;99.90;;;;;;5053432;28;20414;-74
2022/07/18 01:22:17;;;;;;;1.30;0.40;;;11.90;99.90;;;;;;5054486;28;20024;-75
2022/07/18 01:24:45;;;;;;;1.15;0.60;;;11.90;99.90;;;;;;5052947;28;20029;-74
2022/07/18 01:27:19;;;;;;;0.93;0.40;;;11.90;99.90;;;;;;5054231;28;20017;-74
2022/07/18 01:29:50;;;;;;;0.63;0.30;;;11.90;99.90;;;;;;5052950;28;20051;-75
2022/07/18 01:32:19;;;;;;;1.52;0.65;;;12.00;99.90;;;;;;5054348;28;20033;-76
2022/07/18 01:34:47;;;;;;;0.95;0.30;;;12.00;99.90;;;;;;5054791;28;20025;-78
2022/07/18 01:37:17;;;;;;;1.90;0.40;;;11.90;99.90;;;;;;5054535;28;20378;-78
2022/07/18 01:39:45;;;;;;;0.50;0.30;;;11.90;99.90;;;;;;5052302;28;20013;-81
2022/07/18 01:42:14;;;;;;;0.63;0.40;;;11.90;99.90;;;;;;5054548;28;20013;-78
2022/07/18 01:44:42;;;;;;;1.58;0.60;;;11.90;99.90;;;;;;5051656;28;20029;-78
2022/07/18 01:47:11;;;;;;;0.50;0.38;;;11.90;99.90;;;;;;5054535;28;20488;-72
2022/07/18 01:49:39;;;;;;;0.65;0.47;;;11.90;99.90;;;;;;5054280;28;20017;-75
2022/07/18 01:52:07;;;;;;;2.10;0.65;;;11.90;99.90;;;;;;5054330;28;20025;-77
2022/07/18 01:54:37;;;;;;;1.63;0.47;;;11.90;99.90;;;;;;5054191;28;20028;-77
2022/07/18 01:57:06;;;;;;;1.95;0.57;;;12.00;99.90;;;;;;5051965;28;20024;-78
2022/07/18 01:59:34;;;;;;;2.78;0.60;;;12.00;99.90;;;;;;5054181;28;20017;-77
2022/07/18 02:02:03;;;;;;;1.85;0.70;;;12.10;99.90;;;;;;5053857;28;20076;-77
2022/07/18 02:07:15;;;;;;;2.28;0.60;;;12.20;99.90;;;;;;5050230;28;20083;-74
2022/07/18 02:09:42;;;;;;;0.93;0.38;;;12.20;99.90;;;;;;5052024;28;20358;-78
2022/07/18 02:12:10;;;;;;;0.50;0.30;;;12.30;99.90;;;;;;5053690;28;20018;-77
2022/07/18 02:14:37;;;;;;;1.30;0.40;;;12.20;99.90;;;;;;5053690;28;20423;-74
2022/07/18 02:17:04;;;;;;;3.35;0.52;;;12.30;99.90;;;;;;5053202;28;20052;-79
2022/07/18 02:19:32;;;;;;;0.60;0.40;;;12.40;99.90;;;;;;5053902;28;20021;-78
2022/07/18 02:21:59;;;;;;;1.08;0.60;;;12.30;99.90;;;;;;5053748;28;20393;-76
2022/07/18 02:24:27;;;;;;;1.60;0.40;;;12.30;99.90;;;;;;5051193;28;20120;-76
2022/07/18 02:26:54;;;;;;;0.95;0.40;;;12.30;99.90;;;;;;5053459;28;20021;-76
2022/07/18 02:29:24;;;;;;;1.33;0.88;;;12.30;99.90;;;;;;5053483;28;20493;-77
2022/07/18 02:31:51;;;;;;;0.22;0.22;;;12.20;99.90;;;;;;5053544;28;20095;-75
2022/07/18 02:34:19;;;;;;;0.80;0.50;;;12.30;99.90;;;;;;5053351;28;20092;-75
2022/07/18 02:36:47;;;;;;;1.80;0.90;;;12.20;99.90;;;;;;5053489;28;20367;-75
2022/07/18 02:39:14;;;;;;;0.95;0.40;;;12.30;99.90;;;;;;5051671;28;20058;-74
2022/07/18 02:41:42;;;;;;;0.30;0.30;;;12.40;99.90;;;;;;5052262;28;20021;-74
2022/07/18 02:44:09;;;;;;;1.58;0.60;;;12.50;99.90;;;;;;5052491;28;20029;-74
2022/07/18 02:46:37;;;;;;;0.25;0.25;;;12.50;99.90;;;;;;5053659;28;20021;-75
2022/07/18 02:49:04;;;;;;;0.20;0.20;;;12.60;99.90;;;;;;5053592;28;20017;-75
2022/07/18 02:51:31;;;;;;;0.57;0.30;;;12.60;99.90;;;;;;5052590;28;20072;-74
2022/07/18 02:53:59;;;;;;;1.77;0.30;;;12.50;99.90;;;;;;5051359;28;20510;-75
2022/07/18 02:56:26;;;;;;;0.55;0.30;;;12.50;99.90;;;;;;5050428;28;20111;-75
2022/07/18 02:58:53;;;;;;;0.90;0.43;;;12.40;99.90;;;;;;5051057;28;20025;-75
2022/07/18 03:01:21;;;;;;;0.35;0.30;;;12.40;99.90;;;;;;5051136;28;20041;-75
2022/07/18 03:03:48;;;;;;;3.58;0.52;;;12.40;99.90;;;;;;5051142;28;20121;-74
2022/07/18 03:06:15;;;;;;;0.20;0.20;;;12.40;99.90;;;;;;5051639;28;20017;-74
2022/07/18 03:08:43;;;;;;;1.05;0.38;;;12.40;99.90;;;;;;5052341;28;20036;-74
2022/07/18 03:11:10;;;;;;;5.93;0.47;;;12.40;99.90;;;;;;5052888;28;20029;-75
2022/07/18 03:13:37;;;;;;;0.70;0.50;;;12.40;99.90;;;;;;5053321;28;20025;-74
2022/07/18 03:16:05;;;;;;;0.30;0.30;;;12.40;99.90;;;;;;5053401;28;20025;-74
2022/07/18 03:18:32;;;;;;;2.20;0.50;;;12.20;99.90;;;;;;5053360;28;20032;-74
2022/07/18 03:20:59;;;;;;;0.93;0.40;;;12.20;99.90;;;;;;5053255;28;20026;-74
2022/07/18 03:23:27;;;;;;;0.57;0.40;;;12.20;99.90;;;;;;5053362;28;20024;-74
2022/07/18 03:25:54;;;;;;;0.43;0.35;;;12.20;99.90;;;;;;5053117;28;20409;-74
2022/07/18 03:28:21;;;;;;;1.98;0.50;;;12.20;99.90;;;;;;5053131;28;20028;-75
2022/07/18 03:30:49;;;;;;;0.40;0.30;;;12.20;99.90;;;;;;5053275;28;20036;-75
2022/07/18 03:33:19;;;;;;;0.57;0.30;;;12.20;99.90;;;;;;5053163;28;20025;-75
2022/07/18 03:35:46;;;;;;;0.73;0.40;;;12.10;99.90;;;;;;5053146;28;20032;-75
2022/07/18 03:38:14;;;;;;;0.45;0.32;;;12.10;99.90;;;;;;5053275;28;20048;-74
2022/07/18 03:40:41;;;;;;;0.52;0.30;;;12.10;99.90;;;;;;5053141;28;20021;-75
2022/07/18 03:43:08;;;;;;;0.38;0.30;;;12.10;99.90;;;;;;5052978;28;20048;-75
2022/07/18 03:45:36;;;;;;;0.85;0.52;;;12.20;99.90;;;;;;5053185;28;20028;-75
2022/07/18 03:48:03;;;;;;;1.20;0.40;;;12.20;99.90;;;;;;5053264;28;20017;-75
2022/07/18 03:50:30;;;;;;;0.77;0.40;;;12.20;99.90;;;;;;5053231;28;20052;-75
2022/07/18 03:52:58;;;;;;;0.30;0.25;;;12.30;99.90;;;;;;5052839;28;20029;-75
2022/07/18 03:55:25;;;;;;;0.40;0.40;;;12.30;99.90;;;;;;5053016;28;20052;-75
2022/07/18 03:57:52;;;;;;;0.60;0.40;;;12.30;99.90;;;;;;5052975;28;20025;-75
2022/07/18 04:00:19;;;;;;;0.40;0.30;;;12.30;99.90;;;;;;5053030;28;20022;-74
2022/07/18 04:02:48;;;;;;;0.95;0.40;;;12.30;99.90;;;;;;5052691;28;20131;-74
2022/07/18 04:05:16;;;;;;;0.40;0.40;;;12.20;99.90;;;;;;5053059;28;20029;-75
2022/07/18 04:07:44;;;;;;;0.50;0.30;;;12.20;99.90;;;;;;5052846;28;20026;-75
2022/07/18 04:10:12;;;;;;;1.80;0.30;;;12.20;99.90;;;;;;5052821;28;20033;-75
2022/07/18 04:12:49;;;;;;;0.50;0.30;;;12.20;99.90;;;;;;5052794;28;20512;-75
2022/07/18 04:15:18;;;;;;;0.90;0.30;;;12.20;99.90;;;;;;5052965;28;20025;-74
2022/07/18 04:17:46;;;;;;;0.25;0.25;;;12.30;99.90;;;;;;5052760;28;20039;-74
2022/07/18 04:20:15;;;;;;;0.65;0.30;;;12.30;99.90;;;;;;5052830;28;20021;-75
2022/07/18 04:22:49;;;;;;;1.13;0.45;;;12.30;99.90;;;;;;5052696;28;20021;-76
2022/07/18 04:25:17;;;;;;;0.30;0.30;;;12.30;99.90;;;;;;5053303;28;20028;-76
2022/07/18 04:27:45;;;;;;;1.02;0.40;;;12.20;99.90;;;;;;5052844;28;20076;-75
2022/07/18 04:30:14;;;;;;;0.43;0.30;;;12.20;99.90;;;;;;5052738;28;20025;-75
2022/07/18 04:32:42;;;;;;;0.50;0.30;;;12.20;99.90;;;;;;5052547;28;20017;-76
2022/07/18 04:35:11;;;;;;;2.80;0.70;;;12.20;99.90;;;;;;5052602;28;20031;-74
2022/07/18 04:37:39;;;;;;;1.10;0.30;;;12.20;99.90;;;;;;5052694;28;20040;-75
2022/07/18 04:40:09;;;;;;;0.47;0.30;;;12.20;99.90;;;;;;5055667;28;20371;-75
2022/07/18 04:42:36;;;;;;;1.30;0.60;;;12.20;99.90;;;;;;5056351;28;20413;-75
2022/07/18 04:45:04;;;;;;;2.85;0.32;;;12.30;99.90;;;;;;5056229;28;20107;-74
2022/07/18 04:47:32;;;;;;;3.00;0.73;;;12.30;99.90;;;;;;5056119;28;20024;-75
2022/07/18 04:49:59;;;;;;;0.40;0.30;;;12.30;99.90;;;;;;5055972;28;20021;-75
2022/07/18 04:52:27;;;;;;;1.33;0.55;;;12.20;99.90;;;;;;5055997;28;20048;-75
2022/07/18 04:54:54;;;;;;;1.08;0.32;;;12.20;99.90;;;;;;5056034;28;20528;-75
2022/07/18 04:57:21;;;;;;;3.80;0.50;;;12.00;99.90;;;;;;5055994;28;20044;-75
2022/07/18 04:59:49;;;;;;;1.58;0.65;;;12.00;99.90;;;;;;5055824;28;20021;-75
2022/07/18 05:02:16;;;;;;;0.80;0.30;;;11.90;99.90;;;;;;5055633;28;20127;-75
2022/07/18 05:04:43;;;;;;;1.00;0.40;;;11.90;99.90;;;;;;5055780;28;20040;-75
2022/07/18 05:07:11;;;;;;;1.52;0.47;;;11.80;99.90;;;;;;5055760;28;20021;-75
2022/07/18 05:09:40;;;;;;;1.50;0.90;;;11.80;99.90;;;;;;5055484;28;20025;-76
2022/07/18 05:12:08;;;;;;;1.77;0.60;;;11.80;99.90;;;;;;5054452;28;20111;-75
2022/07/18 05:14:36;;;;;;;2.78;0.40;;;11.80;99.90;;;;;;5055483;28;20063;-75
2022/07/18 05:17:03;;;;;;;0.50;0.50;;;11.70;99.90;;;;;;5055577;28;20013;-75
2022/07/18 05:19:31;;;;;;;1.25;0.60;;;11.70;99.90;;;;;;5055483;28;20025;-75
2022/07/18 05:21:58;;;;;;;0.70;0.30;;;11.70;99.90;;;;;;5055619;28;20017;-75
2022/07/18 05:24:25;;;;;;;1.65;0.35;;;11.70;99.90;;;;;;5055507;28;20086;-75
2022/07/18 05:26:52;;;;;;;2.80;0.40;;;11.70;99.90;;;;;;5055309;28;20017;-75
2022/07/18 05:29:20;;;;;;;0.47;0.40;;;11.70;99.90;;;;;;5055219;28;20021;-75
2022/07/18 05:31:47;;;;;;;0.30;0.30;;;11.60;99.90;;;;;;5055151;28;20044;-75
2022/07/18 05:34:14;;;;;;;1.08;0.40;;;11.60;99.90;;;;;;5055036;28;20159;-75
2022/07/18 05:36:41;;;;;;;0.65;0.30;;;11.60;99.90;;;;;;5055213;28;20024;-76
2022/07/18 05:39:09;;;;;;;1.85;0.40;;;11.60;99.90;;;;;;5054989;28;20021;-76
2022/07/18 05:41:36;;;;;;;1.52;0.80;;;11.50;99.90;;;;;;5055750;28;20052;-75
2022/07/18 05:44:04;;;;;;;1.65;0.38;;;11.50;99.90;;;;;;5055034;28;20028;-76
2022/07/18 05:46:31;;;;;;;1.35;0.50;;;11.50;99.90;;;;;;5055013;28;20071;-76
2022/07/18 05:48:59;;;;;;;0.85;0.43;;;11.50;99.90;;;;;;5054458;28;20359;-75
2022/07/18 05:51:26;;;;;;;0.95;0.65;;;11.50;99.90;;;;;;5055052;28;20049;-75
2022/07/18 05:53:53;;;;;;;3.20;0.47;;;11.50;99.90;;;;;;5054727;28;20029;-75
2022/07/18 05:56:20;;;;;;;1.27;0.70;;;11.40;99.90;;;;;;5053499;28;20473;-75
2022/07/18 05:58:48;;;;;;;2.65;0.60;;;11.40;99.90;;;;;;5054696;28;20036;-75
2022/07/18 06:01:19;;;;;;;3.03;0.60;;;11.40;99.90;;;;;;5054469;28;20044;-74
2022/07/18 06:03:47;;;;;;;1.13;0.60;;;11.30;99.90;;;;;;5054629;28;20029;-75
2022/07/18 06:06:16;;;;;;;0.50;0.40;;;11.30;99.90;;;;;;5054697;28;20466;-75
2022/07/18 06:08:43;;;;;;;0.82;0.50;;;11.30;99.90;;;;;;5054680;28;20028;-74
2022/07/18 06:11:11;;;;;;;0.70;0.40;;;11.20;99.90;;;;;;5054435;28;20059;-75
2022/07/18 06:13:41;;;;;;;2.25;0.43;;;11.20;99.90;;;;;;5054411;28;20025;-75
2022/07/18 06:16:09;;;;;;;3.70;0.52;;;11.20;99.90;;;;;;5054501;28;20048;-75
2022/07/18 06:18:37;;;;;;;1.05;0.40;;;11.20;99.90;;;;;;5054530;28;20096;-75
2022/07/18 06:21:05;;;;;;;0.30;0.30;;;11.10;99.90;;;;;;5054221;28;20148;-75
2022/07/18 06:23:35;;;;;;;1.25;0.50;;;11.10;99.90;;;;;;5054225;28;20075;-74
2022/07/18 06:26:03;;;;;;;1.38;0.40;;;11.00;99.90;;;;;;5054304;28;20525;-75
2022/07/18 06:28:31;;;;;;;1.35;0.40;;;11.00;99.90;;;;;;5054197;28;20024;-75
2022/07/18 06:30:59;;;;;;;0.75;0.43;;;10.90;99.90;;;;;;5054298;28;20025;-75
2022/07/18 06:33:27;;;;;;;0.40;0.38;;;10.90;99.90;;;;;;5054436;28;20036;-74
2022/07/18 06:35:54;;;;;;;0.82;0.43;;;10.90;99.90;;;;;;5053955;28;20032;-75
2022/07/18 06:38:22;;;;;;;1.30;0.52;;;10.80;99.90;;;;;;5053871;28;20033;-74
2022/07/18 06:40:50;;;;;;;0.52;0.35;;;10.80;99.90;;;;;;5054068;28;20055;-74
2022/07/18 06:43:23;;;;;;;0.40;0.40;;;10.70;99.90;;;;;;5053881;28;20036;-74
2022/07/18 06:45:57;;;;;;;4.88;0.88;;;10.60;99.90;;;;;;5053786;28;20029;-75
2022/07/18 06:48:26;;;;;;;2.15;0.52;;;10.60;99.90;;;;;;5053667;28;20028;-75
2022/07/18 06:50:53;;;;;;;0.60;0.50;;;10.50;99.90;;;;;;5053844;28;20025;-75
2022/07/18 06:53:21;;;;;;;3.75;0.30;;;10.40;99.90;;;;;;5053617;28;20055;-74
2022/07/18 06:55:48;;;;;;;2.55;0.85;;;10.40;99.90;;;;;;5053632;28;20367;-75
2022/07/18 06:58:16;;;;;;;1.10;0.40;;;10.30;99.90;;;;;;5053628;28;20017;-75
2022/07/18 07:00:44;;;;;;;0.82;0.40;;;10.20;99.90;;;;;;5052774;28;20398;-75
2022/07/18 07:03:11;;;;;;;1.95;0.60;;;10.20;99.90;;;;;;5053156;28;20466;-74
2022/07/18 07:05:39;;;;;;;0.75;0.63;;;10.10;99.90;;;;;;5053425;28;20031;-74
2022/07/18 07:08:07;;;;;;;1.10;0.75;;;10.00;99.90;;;;;;5053525;28;20053;-74
2022/07/18 07:10:35;;;;;;;2.33;0.95;;;10.00;99.90;;;;;;5053476;28;20021;-75
2022/07/18 07:13:02;;;;;;;0.80;0.50;;;9.90;99.90;;;;;;5053269;28;20021;-75
2022/07/18 07:15:30;;;;;;;1.38;0.90;;;9.90;99.90;;;;;;5053374;28;20017;-74
2022/07/18 07:17:58;;;;;;;1.33;0.60;;;9.80;99.90;;;;;;5053655;28;20111;-75
2022/07/18 07:20:26;;;;;;;1.40;0.57;;;9.80;99.90;;;;;;5053341;28;20124;-74
2022/07/18 07:22:56;;;;;;;0.60;0.50;;;9.70;99.90;;;;;;5053452;28;20027;-75
2022/07/18 07:25:25;;;;;;;0.70;0.60;;;9.60;99.90;;;;;;5053486;28;20060;-75
2022/07/18 07:27:54;;;;;;;1.10;0.65;;;9.60;99.90;;;;;;5053202;28;20024;-75
2022/07/18 07:30:22;;;;;;;1.35;0.60;;;9.50;99.90;;;;;;5053255;28;20029;-74
2022/07/18 07:32:51;;;;;;;0.95;0.63;;;9.50;99.90;;;;;;5053118;28;20354;-74
2022/07/18 07:35:20;;;;;;;1.80;0.68;;;9.40;99.90;;;;;;5053368;28;20057;-75
2022/07/18 07:37:56;;;;;;;0.77;0.50;;;9.30;99.90;;;;;;5053353;28;20066;-75
2022/07/18 07:40:26;;;;;;;1.92;0.75;;;9.30;99.90;;;;;;5053183;28;20429;-74
2022/07/18 07:43:14;;;;;;;2.67;0.90;;;9.20;99.90;;;;;;5053258;28;20061;-74
2022/07/18 07:45:42;;;;;;;1.27;0.80;;;9.20;99.90;;;;;;5052972;28;20033;-75
2022/07/18 07:48:10;;;;;;;4.00;1.20;;;9.10;99.90;;;;;;5053164;28;20025;-74
2022/07/18 07:50:37;;;;;;;3.60;1.27;;;9.10;99.90;;;;;;5053289;28;20044;-75
2022/07/18 07:53:05;;;;;;;3.22;1.10;;;9.10;99.90;;;;;;5052941;28;20163;-74
2022/07/18 07:55:37;;;;;;;1.40;1.10;;;9.10;99.90;;;;;;5053123;28;20029;-74
2022/07/18 07:58:05;;;;;;;2.45;1.00;;;9.00;99.90;;;;;;5052881;28;20028;-74
2022/07/18 08:00:33;;;;;;;3.42;1.20;;;9.00;99.90;;;;;;5053121;28;20032;-74
2022/07/18 08:03:03;;;;;;;2.33;1.08;;;8.90;99.90;;;;;;5052894;28;20098;-75
2022/07/18 08:05:33;;;;;;;1.42;1.02;;;8.90;99.90;;;;;;5052986;28;20108;-74
2022/07/18 08:08:05;;;;;;;3.05;1.60;;;8.90;99.90;;;;;;5052855;28;20020;-74
2022/07/18 08:10:33;;;;;;;2.42;1.17;;;8.90;99.90;;;;;;5052815;28;20354;-74
2022/07/18 08:13:01;;;;;;;3.58;1.13;;;8.90;99.90;;;;;;5054507;28;20060;-74
2022/07/18 08:15:32;;;;;;;2.13;1.20;;;8.80;99.90;;;;;;5056661;28;20036;-75
2022/07/18 08:17:59;;;;;;;4.13;1.48;;;8.80;99.90;;;;;;5056771;28;20027;-74
2022/07/18 08:20:27;;;;;;;2.67;1.33;;;8.70;99.90;;;;;;5056614;28;20474;-74
2022/07/18 08:23:05;;;;;;;3.45;1.58;;;8.70;99.90;;;;;;5056893;28;20025;-74
2022/07/18 08:25:36;;;;;;;3.08;1.88;;;8.60;99.90;;;;;;5056710;28;20025;-74
2022/07/18 08:28:05;;;;;;;4.88;1.63;;;8.60;99.90;;;;;;5056593;28;20023;-75
2022/07/18 08:30:34;;;;;;;3.30;1.20;;;8.60;99.90;;;;;;5056358;28;20048;-75
2022/07/18 08:33:02;;;;;;;2.88;1.60;;;8.60;99.90;;;;;;5056449;28;20027;-75
2022/07/18 08:35:31;;;;;;;24.20;13.73;;;8.50;99.90;;;;;;5056417;28;20021;-75
2022/07/18 08:38:01;;;;;;;9.00;5.28;;;8.50;99.90;;;;;;5056255;28;20470;-75
2022/07/18 08:40:29;;;;;;;6.65;3.05;;;8.40;99.90;;;;;;5055138;28;20078;-75
2022/07/18 08:42:58;;;;;;;3.78;2.17;;;8.40;99.90;;;;;;5056124;28;20021;-75
2022/07/18 08:45:26;;;;;;;3.05;2.20;;;8.40;99.90;;;;;;5056208;28;20033;-75
2022/07/18 08:47:54;;;;;;;8.82;2.40;;;8.30;99.90;;;;;;5056127;28;20052;-75
2022/07/18 08:50:22;;;;;;;3.65;1.98;;;8.30;99.90;;;;;;5038413;28;20316;-75
2022/07/18 08:52:51;;;;;;;5.18;2.72;;;8.30;99.90;;;;;;5056073;28;20025;-75
2022/07/18 08:55:19;;;;;;;4.43;1.90;;;8.30;99.90;;;;;;5055921;28;20029;-75
2022/07/18 08:57:46;;;;;;;6.30;1.80;;;8.30;99.90;;;;;;5055964;28;20480;-75
2022/07/18 09:00:16;;;;;;;4.45;2.28;;;8.30;99.90;;;;;;5055970;28;20021;-75
2022/07/18 09:02:44;;;;;;;5.35;1.85;;;8.20;99.90;;;;;;5055794;28;20064;-75
2022/07/18 09:05:20;;;;;;;4.72;1.67;;;8.20;99.90;;;;;;5055844;28;20110;-75
2022/07/18 09:07:49;;;;;;;3.67;2.05;;;8.20;99.90;;;;;;5055659;28;20029;-75
2022/07/18 09:10:17;;;;;;;4.13;2.20;;;8.20;99.90;;;;;;5055667;28;20032;-75
2022/07/18 09:12:57;;;;;;;5.45;2.25;;;8.20;99.90;;;;;;5055516;28;20131;-74
2022/07/18 09:15:25;;;;;;;2.33;1.55;;;8.20;99.90;;;;;;5055750;28;20025;-74
2022/07/18 09:17:57;;;;;;;3.45;2.10;;;8.10;99.90;;;;;;5055447;28;20087;-74
2022/07/18 09:20:25;;;;;;;3.85;2.00;;;8.20;99.90;;;;;;5055417;28;20458;-74
2022/07/18 09:22:53;;;;;;;2.55;1.60;;;8.10;99.90;;;;;;5055382;28;20115;-74
2022/07/18 09:25:24;;;;;;;2.97;1.95;;;8.10;99.90;;;;;;5054705;28;20120;-74
2022/07/18 09:27:53;;;;;;;3.33;1.83;;;8.10;99.90;;;;;;5055524;28;20021;-74
2022/07/18 09:30:26;;;;;;;4.20;1.83;;;8.10;99.90;;;;;;5055173;28;20083;-74
2022/07/18 09:33:08;;;;;;;3.85;1.85;;;8.10;99.90;;;;;;5055156;28;20017;-74
2022/07/18 09:35:37;;;;;;;3.15;1.65;;;8.10;99.90;;;;;;5055318;28;20107;-74
2022/07/18 09:38:14;;;;;;;3.70;2.22;;;8.10;99.90;;;;;;5055035;28;20047;-75
2022/07/18 09:40:43;;;;;;;2.72;1.60;;;8.00;99.90;;;;;;5055424;28;20086;-74
2022/07/18 09:43:14;;;;;;;3.95;1.90;;;8.00;99.90;;;;;;5055169;28;20526;-74
2022/07/18 09:45:49;;;;;;;3.17;1.63;;;8.00;99.90;;;;;;5055090;28;20079;-74
2022/07/18 09:48:24;;;;;;;5.35;2.60;;;7.90;99.90;;;;;;5054986;28;20017;-75
2022/07/18 09:51:03;;;;;;;2.40;1.50;;;7.90;99.90;;;;;;5055639;28;20086;-74
2022/07/18 09:53:42;;;;;;;4.95;1.67;;;7.90;99.90;;;;;;5054861;28;20424;-75
2022/07/18 09:56:22;;;;;;;2.30;1.35;;;7.90;99.90;;;;;;5054880;28;20108;-74
2022/07/18 09:58:57;;;;;;;5.53;2.03;;;7.90;99.90;;;;;;5055108;28;20017;-74
2022/07/18 10:01:25;;;;;;;4.63;2.40;;;7.90;99.90;;;;;;5054737;28;20045;-75
2022/07/18 10:03:53;;;;;;;3.38;1.90;;;7.90;99.90;;;;;;5054856;28;20120;-75
2022/07/18 10:06:22;;;;;;;2.72;1.98;;;7.90;99.90;;;;;;5054630;28;20025;-75
2022/07/18 10:08:50;;;;;;;3.83;2.53;;;7.90;99.90;;;;;;5054725;28;20036;-74
2022/07/18 10:11:18;;;;;;;3.85;2.03;;;7.90;99.90;;;;;;5054616;28;20027;-74
2022/07/18 10:13:46;;;;;;;2.00;1.40;;;7.80;99.90;;;;;;5054586;28;20100;-75
2022/07/18 10:16:15;;;;;;;2.92;1.20;;;7.80;99.90;;;;;;5054604;28;20056;-75
2022/07/18 10:18:43;;;;;;;5.28;1.58;;;7.80;99.90;;;;;;5054344;28;20100;-75
2022/07/18 10:21:13;;;;;;;3.22;1.27;;;7.90;99.90;;;;;;5054350;28;20086;-74
2022/07/18 10:23:51;;;;;;;2.78;1.33;;;7.80;99.90;;;;;;5054315;28;20021;-75
2022/07/18 10:26:20;;;;;;;3.17;1.40;;;7.80;99.90;;;;;;5054559;28;20386;-74
2022/07/18 10:28:59;;;;;;;1.30;0.90;;;7.80;99.90;;;;;;5054134;28;20028;-74
2022/07/18 10:31:28;;;;;;;4.68;1.05;;;7.80;99.90;;;;;;5054504;28;20021;-74
2022/07/18 10:34:11;;;;;;;2.15;1.00;;;7.80;99.90;;;;;;5054244;28;20024;-75
2022/07/18 10:36:40;;;;;;;2.25;1.25;;;7.70;99.90;;;;;;5054192;28;20017;-74
2022/07/18 10:39:25;;;;;;;3.08;1.40;;;7.70;99.90;;;;;;5053901;28;20075;-74
2022/07/18 10:41:57;;;;;;;3.73;1.60;;;7.70;99.90;;;;;;5052785;28;20092;-75
2022/07/18 10:44:25;;;;;;;2.58;1.55;;;7.70;99.90;;;;;;5053888;28;20474;-75
2022/07/18 10:47:27;;;;;;;3.53;1.77;;;7.60;99.90;;;;;;5054074;28;20017;-74
2022/07/18 10:49:57;;;;;;;2.92;1.30;;;7.60;99.90;;;;;;5054093;28;20036;-75
2022/07/18 10:52:27;;;;;;;5.40;2.20;;;7.60;99.90;;;;;;5054317;28;20028;-75
2022/07/18 10:55:16;;;;;;;5.18;1.63;;;7.60;99.90;;;;;;5052500;28;20021;-75
2022/07/18 10:58:06;;;;;;;2.97;1.23;;;7.60;99.90;;;;;;5054337;28;20044;-74
2022/07/18 11:00:37;;;;;;;3.72;1.55;;;7.60;99.90;;;;;;5053640;28;20401;-75
2022/07/18 11:03:07;;;;;;;4.68;1.95;;;7.60;99.90;;;;;;5053675;28;20049;-74
2022/07/18 11:05:41;;;;;;;3.50;1.40;;;7.60;99.90;;;;;;5053673;28;20033;-74
2022/07/18 11:08:17;;;;;;;2.65;1.30;;;7.60;99.90;;;;;;5053675;28;20052;-74
2022/07/18 11:10:46;;;;;;;2.90;1.50;;;7.60;99.90;;;;;;5053439;28;20025;-75
2022/07/18 11:13:30;;;;;;;2.33;1.05;;;7.50;99.90;;;;;;5053381;28;20029;-74
2022/07/18 11:16:07;;;;;;;4.00;1.38;;;7.50;99.90;;;;;;5053816;28;20070;-74
2022/07/18 11:18:54;;;;;;;4.53;1.50;;;7.50;99.90;;;;;;5053378;28;20067;-74
2022/07/18 11:21:28;;;;;;;2.35;1.17;;;7.50;99.90;;;;;;5053738;28;20025;-75
2022/07/18 11:24:09;;;;;;;4.72;1.10;;;7.40;99.90;;;;;;5053379;28;20171;-75
2022/07/18 11:26:42;;;;;;;1.83;1.17;;;7.40;99.90;;;;;;5053410;28;20028;-74
2022/07/18 11:29:13;;;;;;;1.70;1.05;;;7.40;99.90;;;;;;5053427;28;20025;-74
2022/07/18 11:31:47;;;;;;;3.72;1.33;;;7.40;99.90;;;;;;5053539;28;20106;-75
2022/07/18 11:34:15;;;;;;;3.08;1.17;;;7.40;99.90;;;;;;5053240;28;20052;-74
2022/07/18 11:36:46;;;;;;;2.65;1.23;;;7.40;99.90;;;;;;5053177;28;20378;-74
2022/07/18 11:39:15;;;;;;;3.70;1.27;;;7.40;99.90;;;;;;5053360;28;20159;-75
2022/07/18 11:41:43;;;;;;;3.72;1.25;;;7.30;99.90;;;;;;5053286;28;20017;-74
2022/07/18 11:44:26;;;;;;;2.33;1.27;;;7.30;99.90;;;;;;5053008;28;20436;-74
2022/07/18 11:47:08;;;;;;;2.08;1.10;;;7.30;99.90;;;;;;5053254;28;20450;-75
2022/07/18 11:49:37;;;;;;;2.80;1.23;;;7.30;99.90;;;;;;5057289;28;20103;-75
2022/07/18 11:52:06;;;;;;;3.42;1.33;;;7.30;99.90;;;;;;5057296;28;20363;-75
2022/07/18 11:54:35;;;;;;;2.67;1.33;;;7.30;99.90;;;;;;5056989;28;20480;-75
2022/07/18 11:57:03;;;;;;;1.40;1.00;;;7.20;99.90;;;;;;5057348;28;20051;-75
2022/07/18 11:59:43;;;;;;;2.90;1.83;;;7.20;99.90;;;;;;5057044;28;20075;-74
2022/07/18 12:02:12;;;;;;;3.55;1.50;;;7.10;99.90;;;;;;5056798;28;20135;-74
2022/07/18 12:04:41;;;;;;;3.95;1.42;;;7.10;99.90;;;;;;5056929;28;20120;-75
2022/07/18 12:07:19;;;;;;;2.85;1.35;;;7.10;99.90;;;;;;5056856;28;20067;-74
2022/07/18 12:09:48;;;;;;;2.15;1.45;;;7.10;99.90;;;;;;5056915;28;20025;-74
2022/07/18 12:12:18;;;;;;;2.58;1.40;;;7.10;99.90;;;;;;5056843;28;20016;-74
2022/07/18 12:15:00;;;;;;;2.25;1.55;;;7.00;99.90;;;;;;5056748;28;20025;-75
2022/07/18 12:17:29;;;;;;;3.03;1.58;;;7.00;99.90;;;;;;5056643;28;20493;-74
2022/07/18 12:20:20;;;;;;;4.57;1.60;;;7.00;99.90;;;;;;5056646;28;20131;-74
2022/07/18 12:23:11;;;;;;;4.28;2.40;;;6.90;99.90;;;;;;5056806;28;20047;-74
2022/07/18 12:25:43;;;;;;;7.75;2.22;;;6.80;99.90;;;;;;5056680;28;20033;-75
2022/07/18 12:28:18;;;;;;;5.28;2.80;;;6.80;99.90;;;;;;5055200;28;20029;-75
2022/07/18 12:30:46;;;;;;;5.00;2.27;;;6.80;99.90;;;;;;5056611;28;20021;-74
2022/07/18 12:33:13;;;;;;;4.03;2.33;;;6.70;99.90;;;;;;5056520;28;20474;-75
2022/07/18 12:35:42;;;;;;;11.27;3.08;;;6.70;99.90;;;;;;5056708;28;20040;-74
2022/07/18 12:38:11;;;;;;;6.35;2.55;;;6.80;99.90;;;;;;5056112;28;20041;-75
2022/07/18 12:40:51;;;;;;;6.57;3.50;;;6.80;99.90;;;;;;5056600;28;20036;-75
2022/07/18 12:43:27;;;;;;;4.47;2.78;;;6.80;99.90;;;;;;5056183;28;20036;-74
2022/07/18 12:45:56;;;;;;;7.20;3.08;;;6.80;99.90;;;;;;5056435;28;20100;-75
2022/07/18 12:48:24;;;;;;;5.38;2.67;;;6.80;99.90;;;;;;5056198;28;20484;-73
2022/07/18 12:51:00;;;;;;;5.00;2.60;;;6.80;99.90;;;;;;5056081;28;20156;-74
2022/07/18 12:53:28;;;;;;;5.18;2.78;;;6.90;99.90;;;;;;5055989;28;20024;-74
2022/07/18 12:55:55;;;;;;;5.30;2.30;;;6.90;99.90;;;;;;5056054;28;20024;-73
2022/07/18 12:58:22;;;;;;;5.97;2.38;;;7.00;99.90;;;;;;5055587;28;20031;-75
2022/07/18 13:00:50;;;;;;;3.60;1.48;;;7.00;99.90;;;;;;5053839;28;20047;-75
2022/07/18 13:03:18;;;;;;;4.97;1.67;;;7.10;99.90;;;;;;5055754;28;20112;-74
2022/07/18 13:05:45;;;;;;;5.43;1.40;;;7.10;99.90;;;;;;5055811;28;20466;-74
2022/07/18 13:08:12;;;;;;;2.42;1.33;;;7.10;99.90;;;;;;5055722;28;20025;-74